Time,TemperatureF,DewpointF,PressureIn,WindDirection,WindDirectionDegrees,WindSpeedMPH,WindSpeedGustMPH,Humidity,HourlyPrecipIn,Conditions,Clouds,dailyrainin,SoftwareType,DateUTC
2013-04-03 00:03:00,52.0,28.0,28.98,NE,45,2.0,6.0,39,0.00,,,0.00,,2013-04-03 04:03:00,
2013-04-03 00:13:00,52.0,28.0,28.98,NE,45,2.0,6.0,39,0.00,,,0.00,,2013-04-03 04:13:00,
2013-04-03 00:23:00,52.0,28.0,28.98,NE,45,2.0,6.0,39,0.00,,,0.00,,2013-04-03 04:23:00,
2013-04-03 00:33:00,52.0,28.0,28.98,NE,45,2.0,6.0,39,0.00,,,0.00,,2013-04-03 04:33:00,
2013-04-03 01:03:00,51.0,27.0,29.00,North,0,1.0,6.0,39,0.00,,,0.00,,2013-04-03 05:03:00,
2013-04-03 01:13:00,51.0,27.0,29.00,North,0,1.0,6.0,39,0.00,,,0.00,,2013-04-03 05:13:00,
2013-04-03 01:22:00,51.0,27.0,29.00,North,0,1.0,6.0,39,0.00,,,0.00,,2013-04-03 05:22:00,
2013-04-03 01:32:00,51.0,29.0,29.01,North,0,0.0,5.0,43,0.00,,,0.00,,2013-04-03 05:32:00,
2013-04-03 01:42:00,51.0,29.0,29.01,North,0,0.0,5.0,43,0.00,,,0.00,,2013-04-03 05:42:00,
2013-04-03 01:53:00,51.0,29.0,29.01,North,0,0.0,5.0,43,0.00,,,0.00,,2013-04-03 05:53:00,
2013-04-03 02:03:00,50.0,28.0,29.03,NE,45,0.0,3.0,43,0.00,,,0.00,,2013-04-03 06:03:00,
2013-04-03 02:12:00,50.0,28.0,29.03,NE,45,0.0,3.0,43,0.00,,,0.00,,2013-04-03 06:12:00,
2013-04-03 02:22:00,50.0,28.0,29.03,NE,45,0.0,3.0,43,0.00,,,0.00,,2013-04-03 06:22:00,
2013-04-03 02:32:00,48.0,31.0,29.04,NE,45,0.0,1.0,52,0.00,,,0.00,,2013-04-03 06:32:00,
2013-04-03 02:42:00,48.0,31.0,29.04,NE,45,0.0,1.0,52,0.00,,,0.00,,2013-04-03 06:42:00,
2013-04-03 02:52:00,48.0,31.0,29.04,NE,45,0.0,1.0,52,0.00,,,0.00,,2013-04-03 06:52:00,
2013-04-03 03:02:00,49.0,29.0,29.03,NE,45,0.0,3.0,46,0.00,,,0.00,,2013-04-03 07:02:00,
2013-04-03 03:12:00,49.0,29.0,29.03,NE,45,0.0,3.0,46,0.00,,,0.00,,2013-04-03 07:12:00,
2013-04-03 03:23:00,49.0,29.0,29.03,NE,45,0.0,3.0,46,0.00,,,0.00,,2013-04-03 07:23:00,
2013-04-03 03:33:00,49.0,30.0,29.02,NE,45,0.0,2.0,47,0.00,,,0.00,,2013-04-03 07:33:00,
2013-04-03 03:43:00,49.0,30.0,29.02,NE,45,0.0,2.0,47,0.00,,,0.00,,2013-04-03 07:43:00,
2013-04-03 03:53:00,49.0,30.0,29.02,NE,45,0.0,2.0,47,0.00,,,0.00,,2013-04-03 07:53:00,
2013-04-03 04:03:00,48.0,28.0,29.03,ENE,75,1.0,6.0,46,0.00,,,0.00,,2013-04-03 08:03:00,
2013-04-03 04:12:00,48.0,28.0,29.03,ENE,75,1.0,6.0,46,0.00,,,0.00,,2013-04-03 08:12:00,
2013-04-03 04:22:00,48.0,28.0,29.03,ENE,75,1.0,6.0,46,0.00,,,0.00,,2013-04-03 08:22:00,
2013-04-03 04:33:00,48.0,29.0,29.03,South,180,1.0,6.0,48,0.00,,,0.00,,2013-04-03 08:33:00,
2013-04-03 04:43:00,48.0,29.0,29.03,South,180,1.0,6.0,48,0.00,,,0.00,,2013-04-03 08:43:00,
2013-04-03 04:52:00,48.0,29.0,29.03,South,180,1.0,6.0,48,0.00,,,0.00,,2013-04-03 08:52:00,
2013-04-03 05:02:00,47.0,27.0,29.03,North,358,2.0,6.0,46,0.00,,,0.00,,2013-04-03 09:02:00,
2013-04-03 05:12:00,47.0,27.0,29.03,North,358,2.0,6.0,46,0.00,,,0.00,,2013-04-03 09:12:00,
2013-04-03 05:22:00,47.0,27.0,29.03,North,358,2.0,6.0,46,0.00,,,0.00,,2013-04-03 09:22:00,
2013-04-03 05:33:00,47.0,26.0,29.04,NW,322,0.0,6.0,43,0.00,,,0.00,,2013-04-03 09:33:00,
2013-04-03 05:43:00,47.0,26.0,29.04,NW,322,0.0,6.0,43,0.00,,,0.00,,2013-04-03 09:43:00,
2013-04-03 05:53:00,47.0,26.0,29.04,NW,322,0.0,6.0,43,0.00,,,0.00,,2013-04-03 09:53:00,
2013-04-03 06:03:00,46.0,24.0,29.03,NNE,19,2.0,10.0,42,0.00,,,0.00,,2013-04-03 10:03:00,
2013-04-03 06:12:00,46.0,24.0,29.03,NNE,19,2.0,10.0,42,0.00,,,0.00,,2013-04-03 10:12:00,
2013-04-03 06:22:00,46.0,24.0,29.03,NNE,19,2.0,10.0,42,0.00,,,0.00,,2013-04-03 10:22:00,
2013-04-03 06:33:00,44.0,22.0,29.05,NNE,12,2.0,15.0,41,0.00,,,0.00,,2013-04-03 10:33:00,
2013-04-03 06:43:00,44.0,22.0,29.05,NNE,12,2.0,15.0,41,0.00,,,0.00,,2013-04-03 10:43:00,
2013-04-03 06:53:00,44.0,22.0,29.05,NNE,12,2.0,15.0,41,0.00,,,0.00,,2013-04-03 10:53:00,
2013-04-03 07:02:00,44.0,21.0,29.08,NE,45,3.0,9.0,39,0.00,,,0.00,,2013-04-03 11:02:00,
2013-04-03 07:12:00,44.0,21.0,29.08,NE,45,3.0,9.0,39,0.00,,,0.00,,2013-04-03 11:12:00,
2013-04-03 07:23:00,44.0,21.0,29.08,NE,45,3.0,9.0,39,0.00,,,0.00,,2013-04-03 11:23:00,
2013-04-03 07:32:00,42.0,20.0,29.09,NNE,26,0.0,8.0,41,0.00,,,0.00,,2013-04-03 11:32:00,
2013-04-03 07:42:00,42.0,20.0,29.09,NNE,26,0.0,8.0,41,0.00,,,0.00,,2013-04-03 11:42:00,
2013-04-03 07:53:00,42.0,20.0,29.09,NNE,26,0.0,8.0,41,0.00,,,0.00,,2013-04-03 11:53:00,
2013-04-03 08:02:00,41.0,20.0,29.10,North,353,1.0,6.0,43,0.00,,,0.00,,2013-04-03 12:02:00,
2013-04-03 08:13:00,41.0,20.0,29.10,North,353,1.0,6.0,43,0.00,,,0.00,,2013-04-03 12:13:00,
2013-04-03 08:22:00,41.0,20.0,29.10,North,353,1.0,6.0,43,0.00,,,0.00,,2013-04-03 12:22:00,
2013-04-03 08:33:00,47.0,23.0,29.14,NNE,24,2.0,6.0,39,0.00,,,0.00,,2013-04-03 12:33:00,
2013-04-03 08:42:00,47.0,23.0,29.14,NNE,24,2.0,6.0,39,0.00,,,0.00,,2013-04-03 12:42:00,
2013-04-03 08:52:00,47.0,23.0,29.14,NNE,24,2.0,6.0,39,0.00,,,0.00,,2013-04-03 12:52:00,
2013-04-03 09:02:00,49.0,24.0,29.14,NNW,337,2.0,9.0,37,0.00,,,0.00,,2013-04-03 13:02:00,
2013-04-03 09:13:00,49.0,24.0,29.14,NNW,337,2.0,9.0,37,0.00,,,0.00,,2013-04-03 13:13:00,
2013-04-03 09:22:00,49.0,24.0,29.14,NNW,337,2.0,9.0,37,0.00,,,0.00,,2013-04-03 13:22:00,
2013-04-03 09:32:00,50.0,25.0,29.15,North,356,2.0,10.0,37,0.00,,,0.00,,2013-04-03 13:32:00,
2013-04-03 09:42:00,50.0,25.0,29.15,North,356,2.0,10.0,37,0.00,,,0.00,,2013-04-03 13:42:00,
2013-04-03 09:52:00,50.0,25.0,29.15,North,356,2.0,10.0,37,0.00,,,0.00,,2013-04-03 13:52:00,
2013-04-03 10:02:00,52.0,25.0,29.15,NE,45,4.0,10.0,34,0.00,,,0.00,,2013-04-03 14:02:00,
2013-04-03 10:13:00,52.0,25.0,29.15,NE,45,4.0,10.0,34,0.00,,,0.00,,2013-04-03 14:13:00,
2013-04-03 10:22:00,52.0,25.0,29.15,NE,45,4.0,10.0,34,0.00,,,0.00,,2013-04-03 14:22:00,
2013-04-03 10:32:00,53.0,25.0,29.13,South,188,2.0,10.0,34,0.00,,,0.00,,2013-04-03 14:32:00,
2013-04-03 10:43:00,53.0,25.0,29.13,South,188,2.0,10.0,34,0.00,,,0.00,,2013-04-03 14:43:00,
2013-04-03 10:52:00,53.0,25.0,29.13,South,188,2.0,10.0,34,0.00,,,0.00,,2013-04-03 14:52:00,
2013-04-03 11:02:00,54.0,26.0,29.14,East,86,4.0,10.0,33,0.00,,,0.00,,2013-04-03 15:02:00,
2013-04-03 11:13:00,54.0,26.0,29.14,East,86,4.0,10.0,33,0.00,,,0.00,,2013-04-03 15:13:00,
2013-04-03 11:23:00,54.0,26.0,29.14,East,86,4.0,10.0,33,0.00,,,0.00,,2013-04-03 15:23:00,
2013-04-03 11:33:00,54.0,26.0,29.13,NE,45,3.0,10.0,34,0.00,,,0.00,,2013-04-03 15:33:00,
2013-04-03 11:43:00,54.0,26.0,29.13,NE,45,3.0,10.0,34,0.00,,,0.00,,2013-04-03 15:43:00,
2013-04-03 11:53:00,54.0,26.0,29.13,NE,45,3.0,10.0,34,0.00,,,0.00,,2013-04-03 15:53:00,
2013-04-03 12:03:00,56.0,27.0,29.13,WNW,300,2.0,10.0,33,0.00,,,0.00,,2013-04-03 16:03:00,
2013-04-03 12:13:00,56.0,27.0,29.13,WNW,300,2.0,10.0,33,0.00,,,0.00,,2013-04-03 16:13:00,
2013-04-03 12:25:00,56.0,27.0,29.13,WNW,300,2.0,10.0,33,0.00,,,0.00,,2013-04-03 16:25:00,
2013-04-03 12:33:00,58.0,29.0,29.13,SW,225,1.0,9.0,33,0.00,,,0.00,,2013-04-03 16:33:00,
2013-04-03 12:44:00,58.0,29.0,29.13,SW,225,1.0,9.0,33,0.00,,,0.00,,2013-04-03 16:44:00,
2013-04-03 12:53:00,58.0,29.0,29.13,SW,225,1.0,9.0,33,0.00,,,0.00,,2013-04-03 16:53:00,
2013-04-03 13:03:00,57.0,27.0,29.13,NE,38,3.0,9.0,32,0.00,,,0.00,,2013-04-03 17:03:00,
2013-04-03 13:14:00,57.0,27.0,29.13,NE,38,3.0,9.0,32,0.00,,,0.00,,2013-04-03 17:14:00,
2013-04-03 13:23:00,57.0,27.0,29.13,NE,38,3.0,9.0,32,0.00,,,0.00,,2013-04-03 17:23:00,
2013-04-03 13:34:00,58.0,28.0,29.11,NE,55,0.0,8.0,32,0.00,,,0.00,,2013-04-03 17:34:00,
2013-04-03 13:47:00,58.0,28.0,29.11,NE,55,0.0,8.0,32,0.00,,,0.00,,2013-04-03 17:47:00,
2013-04-03 13:54:00,58.0,28.0,29.11,NE,55,0.0,8.0,32,0.00,,,0.00,,2013-04-03 17:54:00,
2013-04-03 14:03:00,58.0,28.0,29.10,NW,315,1.0,8.0,32,0.00,,,0.00,,2013-04-03 18:03:00,
2013-04-03 14:13:00,58.0,28.0,29.10,NW,315,1.0,8.0,32,0.00,,,0.00,,2013-04-03 18:13:00,
2013-04-03 14:23:00,58.0,28.0,29.10,NW,315,1.0,8.0,32,0.00,,,0.00,,2013-04-03 18:23:00,
2013-04-03 14:33:00,61.0,32.0,29.09,NW,315,1.0,8.0,33,0.00,,,0.00,,2013-04-03 18:33:00,
2013-04-03 14:43:00,61.0,32.0,29.09,NW,315,1.0,8.0,33,0.00,,,0.00,,2013-04-03 18:43:00,
2013-04-03 14:52:00,61.0,32.0,29.09,NW,315,1.0,8.0,33,0.00,,,0.00,,2013-04-03 18:52:00,
2013-04-03 15:03:00,61.0,32.0,29.08,NNW,331,3.0,8.0,33,0.00,,,0.00,,2013-04-03 19:03:00,
2013-04-03 15:13:00,61.0,32.0,29.08,NNW,331,3.0,8.0,33,0.00,,,0.00,,2013-04-03 19:13:00,
2013-04-03 15:22:00,61.0,32.0,29.08,NNW,331,3.0,8.0,33,0.00,,,0.00,,2013-04-03 19:22:00,
2013-04-03 15:32:00,64.0,34.0,29.09,NW,315,1.0,6.0,32,0.00,,,0.00,,2013-04-03 19:32:00,
2013-04-03 15:42:00,64.0,34.0,29.09,NW,315,1.0,6.0,32,0.00,,,0.00,,2013-04-03 19:42:00,
2013-04-03 15:52:00,64.0,34.0,29.09,NW,315,1.0,6.0,32,0.00,,,0.00,,2013-04-03 19:52:00,
2013-04-03 16:02:00,63.0,33.0,29.07,WNW,300,1.0,5.0,32,0.00,,,0.00,,2013-04-03 20:02:00,
2013-04-03 16:13:00,63.0,33.0,29.07,WNW,300,1.0,5.0,32,0.00,,,0.00,,2013-04-03 20:13:00,
2013-04-03 16:23:00,63.0,33.0,29.07,WNW,300,1.0,5.0,32,0.00,,,0.00,,2013-04-03 20:23:00,
2013-04-03 16:33:00,63.0,31.0,29.07,NW,315,2.0,6.0,30,0.00,,,0.00,,2013-04-03 20:33:00,
2013-04-03 16:42:00,63.0,31.0,29.07,NW,315,2.0,6.0,30,0.00,,,0.00,,2013-04-03 20:42:00,
2013-04-03 16:54:00,63.0,31.0,29.07,NW,315,2.0,6.0,30,0.00,,,0.00,,2013-04-03 20:54:00,
2013-04-03 17:03:00,62.0,31.0,29.06,North,10,2.0,6.0,31,0.00,,,0.00,,2013-04-03 21:03:00,
2013-04-03 17:12:00,62.0,31.0,29.06,North,10,2.0,6.0,31,0.00,,,0.00,,2013-04-03 21:12:00,
2013-04-03 17:22:00,62.0,31.0,29.06,North,10,2.0,6.0,31,0.00,,,0.00,,2013-04-03 21:22:00,
2013-04-03 17:33:00,60.0,30.0,29.06,East,81,1.0,5.0,32,0.00,,,0.00,,2013-04-03 21:33:00,
2013-04-03 17:42:00,60.0,30.0,29.06,East,81,1.0,5.0,32,0.00,,,0.00,,2013-04-03 21:42:00,
2013-04-03 17:52:00,60.0,30.0,29.06,East,81,1.0,5.0,32,0.00,,,0.00,,2013-04-03 21:52:00,
2013-04-03 18:02:00,60.0,30.0,29.06,SW,225,1.0,5.0,32,0.00,,,0.00,,2013-04-03 22:02:00,
2013-04-03 18:13:00,60.0,30.0,29.06,SW,225,1.0,5.0,32,0.00,,,0.00,,2013-04-03 22:13:00,
2013-04-03 18:22:00,60.0,30.0,29.06,SW,225,1.0,5.0,32,0.00,,,0.00,,2013-04-03 22:22:00,
2013-04-03 18:33:00,59.0,28.0,29.06,North,0,1.0,5.0,31,0.00,,,0.00,,2013-04-03 22:33:00,
2013-04-03 18:42:00,59.0,28.0,29.06,North,0,1.0,5.0,31,0.00,,,0.00,,2013-04-03 22:42:00,
2013-04-03 18:53:00,59.0,28.0,29.06,North,0,1.0,5.0,31,0.00,,,0.00,,2013-04-03 22:53:00,
2013-04-03 19:02:00,58.0,32.0,29.05,North,0,0.0,3.0,37,0.00,,,0.00,,2013-04-03 23:02:00,
2013-04-03 19:12:00,58.0,32.0,29.05,North,0,0.0,3.0,37,0.00,,,0.00,,2013-04-03 23:12:00,
2013-04-03 19:22:00,58.0,32.0,29.05,North,0,0.0,3.0,37,0.00,,,0.00,,2013-04-03 23:22:00,
2013-04-03 19:33:00,56.0,34.0,29.05,North,0,0.0,2.0,44,0.00,,,0.00,,2013-04-03 23:33:00,
2013-04-03 19:43:00,56.0,34.0,29.05,North,0,0.0,2.0,44,0.00,,,0.00,,2013-04-03 23:43:00,
2013-04-03 19:55:00,56.0,34.0,29.05,North,0,0.0,2.0,44,0.00,,,0.00,,2013-04-03 23:55:00,
2013-04-03 20:03:00,53.0,35.0,29.06,North,358,0.0,3.0,51,0.00,,,0.00,,2013-04-04 00:03:00,
2013-04-03 20:12:00,53.0,35.0,29.06,North,358,0.0,3.0,51,0.00,,,0.00,,2013-04-04 00:12:00,
2013-04-03 20:22:00,53.0,35.0,29.06,North,358,0.0,3.0,51,0.00,,,0.00,,2013-04-04 00:22:00,
2013-04-03 20:32:00,51.0,33.0,29.08,NW,315,0.0,3.0,50,0.00,,,0.00,,2013-04-04 00:32:00,
2013-04-03 20:43:00,51.0,33.0,29.08,NW,315,0.0,3.0,50,0.00,,,0.00,,2013-04-04 00:43:00,
2013-04-03 20:52:00,51.0,33.0,29.08,NW,315,0.0,3.0,50,0.00,,,0.00,,2013-04-04 00:52:00,
2013-04-03 21:02:00,48.0,36.0,29.08,NW,315,0.0,1.0,63,0.00,,,0.00,,2013-04-04 01:02:00,
2013-04-03 21:12:00,48.0,36.0,29.08,NW,315,0.0,1.0,63,0.00,,,0.00,,2013-04-04 01:12:00,
2013-04-03 21:22:00,48.0,36.0,29.08,NW,315,0.0,1.0,63,0.00,,,0.00,,2013-04-04 01:22:00,
2013-04-03 21:32:00,47.0,36.0,29.10,North,0,0.0,0.0,65,0.00,,,0.00,,2013-04-04 01:32:00,
2013-04-03 21:43:00,47.0,36.0,29.10,North,0,0.0,0.0,65,0.00,,,0.00,,2013-04-04 01:43:00,
2013-04-03 21:53:00,47.0,36.0,29.10,North,0,0.0,0.0,65,0.00,,,0.00,,2013-04-04 01:53:00,
2013-04-03 22:02:00,47.0,36.0,29.12,NW,315,0.0,1.0,65,0.00,,,0.00,,2013-04-04 02:02:00,
2013-04-03 22:12:00,47.0,36.0,29.12,NW,315,0.0,1.0,65,0.00,,,0.00,,2013-04-04 02:12:00,
2013-04-03 22:22:00,47.0,36.0,29.12,NW,315,0.0,1.0,65,0.00,,,0.00,,2013-04-04 02:22:00,
2013-04-03 22:32:00,47.0,37.0,29.12,NW,315,0.0,1.0,67,0.00,,,0.00,,2013-04-04 02:32:00,
2013-04-03 22:42:00,47.0,37.0,29.12,NW,315,0.0,1.0,67,0.00,,,0.00,,2013-04-04 02:42:00,
2013-04-03 22:53:00,47.0,37.0,29.12,NW,315,0.0,1.0,67,0.00,,,0.00,,2013-04-04 02:53:00,
2013-04-03 23:02:00,46.0,35.0,29.12,North,0,0.0,0.0,66,0.00,,,0.00,,2013-04-04 03:02:00,
2013-04-03 23:12:00,46.0,35.0,29.12,North,0,0.0,0.0,66,0.00,,,0.00,,2013-04-04 03:12:00,
2013-04-03 23:23:00,46.0,35.0,29.12,North,0,0.0,0.0,66,0.00,,,0.00,,2013-04-04 03:23:00,
2013-04-03 23:34:00,45.0,36.0,29.12,North,0,0.0,1.0,71,0.00,,,0.00,,2013-04-04 03:34:00,
2013-04-03 23:45:00,45.0,36.0,29.12,North,0,0.0,1.0,71,0.00,,,0.00,,2013-04-04 03:45:00,
2013-04-03 23:53:00,45.0,36.0,29.12,North,0,0.0,1.0,71,0.00,,,0.00,,2013-04-04 03:53:00,